sensor_id;sensor_type;location;lat;lon;timestamp;pressure;altitude;pressure_sealevel;temperature;humidity
69184;BME280;56291;53.960;27.550;2022-07-29T02:00:59;99416.25;;;12.59;49.48
69184;BME280;56291;53.960;27.550;2022-07-29T02:03:26;99426.97;;;12.57;49.97
69184;BME280;56291;53.960;27.550;2022-07-29T02:05:53;99426.56;;;12.52;50.04
69184;BME280;56291;53.960;27.550;2022-07-29T02:08:22;99426.88;;;12.49;50.62
69184;BME280;56291;53.960;27.550;2022-07-29T02:10:51;99427.31;;;12.44;50.53
69184;BME280;56291;53.960;27.550;2022-07-29T02:13:20;99433.41;;;12.45;50.17
69184;BME280;56291;53.960;27.550;2022-07-29T02:15:49;99435.09;;;12.46;49.54
69184;BME280;56291;53.960;27.550;2022-07-29T02:18:20;99426.75;;;12.41;50.05
69184;BME280;56291;53.960;27.550;2022-07-29T02:20:50;99430.91;;;12.43;50.00
69184;BME280;56291;53.960;27.550;2022-07-29T02:23:20;99436.91;;;12.36;50.38
69184;BME280;56291;53.960;27.550;2022-07-29T02:25:55;99432.38;;;12.28;51.33
69184;BME280;56291;53.960;27.550;2022-07-29T02:28:24;99436.53;;;12.30;50.32
69184;BME280;56291;53.960;27.550;2022-07-29T02:30:53;99434.84;;;12.29;49.85
69184;BME280;56291;53.960;27.550;2022-07-29T02:33:22;99430.97;;;12.24;50.56
69184;BME280;56291;53.960;27.550;2022-07-29T02:35:50;99439.72;;;12.24;50.25
69184;BME280;56291;53.960;27.550;2022-07-29T02:38:18;99438.75;;;12.25;50.48
69184;BME280;56291;53.960;27.550;2022-07-29T02:41:19;99447.94;;;12.21;50.36
69184;BME280;56291;53.960;27.550;2022-07-29T02:43:48;99444.31;;;12.22;50.41
69184;BME280;56291;53.960;27.550;2022-07-29T02:46:20;99449.75;;;12.21;50.79
69184;BME280;56291;53.960;27.550;2022-07-29T02:49:35;99438.94;;;12.14;51.20
69184;BME280;56291;53.960;27.550;2022-07-29T02:51:55;99438.38;;;12.10;51.25
69184;BME280;56291;53.960;27.550;2022-07-29T02:54:39;99441.28;;;12.07;51.73
69184;BME280;56291;53.960;27.550;2022-07-29T02:57:16;99440.47;;;12.07;51.79
69184;BME280;56291;53.960;27.550;2022-07-29T02:59:46;99443.41;;;12.04;52.64
69184;BME280;56291;53.960;27.550;2022-07-29T03:02:14;99452.56;;;12.09;52.71
69184;BME280;56291;53.960;27.550;2022-07-29T03:04:43;99443.50;;;12.12;52.67
69184;BME280;56291;53.960;27.550;2022-07-29T03:07:12;99458.78;;;12.08;52.89
69184;BME280;56291;53.960;27.550;2022-07-29T03:09:41;99457.69;;;12.11;52.27
69184;BME280;56291;53.960;27.550;2022-07-29T03:12:08;99458.66;;;12.10;51.76
69184;BME280;56291;53.960;27.550;2022-07-29T03:14:36;99459.22;;;12.04;51.94
69184;BME280;56291;53.960;27.550;2022-07-29T03:17:04;99456.44;;;12.05;51.75
69184;BME280;56291;53.960;27.550;2022-07-29T03:19:31;99460.59;;;12.08;53.04
69184;BME280;56291;53.960;27.550;2022-07-29T03:21:58;99457.13;;;12.07;52.45
69184;BME280;56291;53.960;27.550;2022-07-29T03:24:34;99462.25;;;12.09;51.47
69184;BME280;56291;53.960;27.550;2022-07-29T03:27:01;99464.06;;;12.08;51.39
69184;BME280;56291;53.960;27.550;2022-07-29T03:29:28;99469.47;;;12.07;52.31
69184;BME280;56291;53.960;27.550;2022-07-29T03:31:54;99471.16;;;12.08;53.52
69184;BME280;56291;53.960;27.550;2022-07-29T03:34:21;99464.88;;;12.09;51.28
69184;BME280;56291;53.960;27.550;2022-07-29T03:36:48;99466.41;;;12.11;53.11
69184;BME280;56291;53.960;27.550;2022-07-29T03:39:18;99465.59;;;12.11;54.80
69184;BME280;56291;53.960;27.550;2022-07-29T03:41:50;99463.22;;;12.18;53.51
69184;BME280;56291;53.960;27.550;2022-07-29T03:44:18;99466.25;;;12.23;52.85
69184;BME280;56291;53.960;27.550;2022-07-29T03:46:49;99470.84;;;12.21;53.47
69184;BME280;56291;53.960;27.550;2022-07-29T03:49:17;99469.16;;;12.20;55.36
69184;BME280;56291;53.960;27.550;2022-07-29T03:51:44;99463.31;;;12.26;53.14
69184;BME280;56291;53.960;27.550;2022-07-29T03:54:11;99465.94;;;12.26;52.84
69184;BME280;56291;53.960;27.550;2022-07-29T03:56:59;99467.47;;;12.28;54.84
69184;BME280;56291;53.960;27.550;2022-07-29T03:59:27;99467.75;;;12.35;55.15
69184;BME280;56291;53.960;27.550;2022-07-29T04:01:56;99472.19;;;12.34;54.89
69184;BME280;56291;53.960;27.550;2022-07-29T04:04:24;99473.97;;;12.34;55.00
69184;BME280;56291;53.960;27.550;2022-07-29T04:06:50;99476.47;;;12.36;56.16
69184;BME280;56291;53.960;27.550;2022-07-29T04:09:17;99475.06;;;12.41;54.91
69184;BME280;56291;53.960;27.550;2022-07-29T04:11:43;99475.78;;;12.43;55.83
69184;BME280;56291;53.960;27.550;2022-07-29T04:14:11;99485.22;;;12.46;55.69
69184;BME280;56291;53.960;27.550;2022-07-29T04:16:37;99487.56;;;12.49;55.45
69184;BME280;56291;53.960;27.550;2022-07-29T04:19:03;99488.13;;;12.53;55.76
69184;BME280;56291;53.960;27.550;2022-07-29T04:21:30;99476.72;;;12.52;56.65
69184;BME280;56291;53.960;27.550;2022-07-29T04:23:56;99488.13;;;12.53;56.98
69184;BME280;56291;53.960;27.550;2022-07-29T04:26:22;99490.59;;;12.54;55.61
69184;BME280;56291;53.960;27.550;2022-07-29T04:28:48;99485.19;;;12.56;55.41
69184;BME280;56291;53.960;27.550;2022-07-29T04:31:15;99494.31;;;12.61;56.85
69184;BME280;56291;53.960;27.550;2022-07-29T04:33:41;99490.56;;;12.64;56.53
69184;BME280;56291;53.960;27.550;2022-07-29T04:36:07;99491.41;;;12.64;57.18
69184;BME280;56291;53.960;27.550;2022-07-29T04:38:34;99494.59;;;12.68;57.25
69184;BME280;56291;53.960;27.550;2022-07-29T04:41:00;99489.97;;;12.70;55.90
69184;BME280;56291;53.960;27.550;2022-07-29T04:43:26;99500.94;;;12.75;57.43
69184;BME280;56291;53.960;27.550;2022-07-29T04:45:52;99499.38;;;12.82;56.51
69184;BME280;56291;53.960;27.550;2022-07-29T04:48:19;99503.25;;;12.88;56.02
69184;BME280;56291;53.960;27.550;2022-07-29T04:50:45;99503.66;;;12.93;55.95
69184;BME280;56291;53.960;27.550;2022-07-29T04:53:11;99502.22;;;12.99;55.75
69184;BME280;56291;53.960;27.550;2022-07-29T04:55:39;99501.06;;;13.01;55.37
69184;BME280;56291;53.960;27.550;2022-07-29T04:58:06;99511.59;;;13.11;55.08
69184;BME280;56291;53.960;27.550;2022-07-29T05:00:33;99507.53;;;13.17;55.57
69184;BME280;56291;53.960;27.550;2022-07-29T05:03:00;99508.63;;;13.24;56.79
69184;BME280;56291;53.960;27.550;2022-07-29T05:05:26;99508.56;;;13.34;55.21
69184;BME280;56291;53.960;27.550;2022-07-29T05:07:55;99510.16;;;13.45;55.85
69184;BME280;56291;53.960;27.550;2022-07-29T05:10:22;99514.03;;;13.50;54.88
69184;BME280;56291;53.960;27.550;2022-07-29T05:12:48;99509.78;;;13.58;54.61
69184;BME280;56291;53.960;27.550;2022-07-29T05:15:16;99513.53;;;13.65;54.50
69184;BME280;56291;53.960;27.550;2022-07-29T05:17:44;99510.94;;;13.73;55.00
69184;BME280;56291;53.960;27.550;2022-07-29T05:20:10;99516.28;;;13.81;55.59
69184;BME280;56291;53.960;27.550;2022-07-29T05:22:37;99520.69;;;13.91;55.08
69184;BME280;56291;53.960;27.550;2022-07-29T05:25:03;99528.84;;;13.97;57.06
69184;BME280;56291;53.960;27.550;2022-07-29T05:27:30;99524.59;;;14.04;57.13
69184;BME280;56291;53.960;27.550;2022-07-29T05:29:56;99524.97;;;14.10;56.38
69184;BME280;56291;53.960;27.550;2022-07-29T05:32:22;99527.97;;;14.15;56.12
69184;BME280;56291;53.960;27.550;2022-07-29T05:34:49;99534.78;;;14.17;55.68
69184;BME280;56291;53.960;27.550;2022-07-29T05:37:15;99533.66;;;14.20;55.04
69184;BME280;56291;53.960;27.550;2022-07-29T05:39:41;99534.84;;;14.26;55.29
69184;BME280;56291;53.960;27.550;2022-07-29T05:42:11;99536.03;;;14.31;55.53
69184;BME280;56291;53.960;27.550;2022-07-29T05:44:40;99541.84;;;14.35;55.70
69184;BME280;56291;53.960;27.550;2022-07-29T05:47:08;99543.19;;;14.39;56.21
69184;BME280;56291;53.960;27.550;2022-07-29T05:49:37;99536.63;;;14.43;58.04
69184;BME280;56291;53.960;27.550;2022-07-29T05:52:04;99535.78;;;14.43;55.36
69184;BME280;56291;53.960;27.550;2022-07-29T05:54:31;99547.56;;;14.48;57.15
69184;BME280;56291;53.960;27.550;2022-07-29T05:56:58;99551.25;;;14.55;58.29
69184;BME280;56291;53.960;27.550;2022-07-29T05:59:25;99550.13;;;14.58;55.64
69184;BME280;56291;53.960;27.550;2022-07-29T06:01:52;99549.13;;;14.59;55.08
69184;BME280;56291;53.960;27.550;2022-07-29T06:04:18;99551.63;;;14.61;57.76
69184;BME280;56291;53.960;27.550;2022-07-29T06:06:45;99552.31;;;14.63;55.14
69184;BME280;56291;53.960;27.550;2022-07-29T06:09:12;99549.06;;;14.69;55.86
69184;BME280;56291;53.960;27.550;2022-07-29T06:11:39;99557.66;;;14.71;55.17
69184;BME280;56291;53.960;27.550;2022-07-29T06:14:06;99556.53;;;14.73;54.76
69184;BME280;56291;53.960;27.550;2022-07-29T06:16:32;99554.53;;;14.76;55.45
69184;BME280;56291;53.960;27.550;2022-07-29T06:18:59;99553.41;;;14.78;54.83
69184;BME280;56291;53.960;27.550;2022-07-29T06:21:27;99552.25;;;14.81;54.68
69184;BME280;56291;53.960;27.550;2022-07-29T06:23:53;99548.00;;;14.88;56.46
69184;BME280;56291;53.960;27.550;2022-07-29T06:26:19;99549.50;;;14.90;56.09
69184;BME280;56291;53.960;27.550;2022-07-29T06:28:46;99547.38;;;14.94;55.39
69184;BME280;56291;53.960;27.550;2022-07-29T06:31:19;99545.22;;;14.98;55.39
69184;BME280;56291;53.960;27.550;2022-07-29T06:33:47;99537.63;;;15.03;55.41
69184;BME280;56291;53.960;27.550;2022-07-29T06:36:15;99545.25;;;15.06;55.32
69184;BME280;56291;53.960;27.550;2022-07-29T06:38:44;99541.16;;;15.12;55.23
69184;BME280;56291;53.960;27.550;2022-07-29T06:41:11;99544.97;;;15.17;55.19
69184;BME280;56291;53.960;27.550;2022-07-29T06:43:44;99542.69;;;15.22;55.33
69184;BME280;56291;53.960;27.550;2022-07-29T06:46:13;99536.44;;;15.32;55.17
69184;BME280;56291;53.960;27.550;2022-07-29T06:48:41;99544.22;;;15.33;55.96
69184;BME280;56291;53.960;27.550;2022-07-29T06:51:11;99549.50;;;15.41;54.28
69184;BME280;56291;53.960;27.550;2022-07-29T06:53:38;99545.75;;;15.52;55.49
69184;BME280;56291;53.960;27.550;2022-07-29T06:56:05;99546.28;;;15.64;55.63
69184;BME280;56291;53.960;27.550;2022-07-29T06:58:35;99553.75;;;15.69;54.04
69184;BME280;56291;53.960;27.550;2022-07-29T07:01:07;99550.91;;;15.70;54.66
69184;BME280;56291;53.960;27.550;2022-07-29T07:03:34;99558.38;;;15.75;55.23
69184;BME280;56291;53.960;27.550;2022-07-29T07:06:18;99554.94;;;15.83;53.92
69184;BME280;56291;53.960;27.550;2022-07-29T07:08:44;99560.09;;;15.92;54.94
69184;BME280;56291;53.960;27.550;2022-07-29T07:11:11;99568.41;;;15.98;55.74
69184;BME280;56291;53.960;27.550;2022-07-29T07:13:39;99561.63;;;16.03;54.05
69184;BME280;56291;53.960;27.550;2022-07-29T07:16:05;99559.78;;;16.12;53.56
69184;BME280;56291;53.960;27.550;2022-07-29T07:18:32;99565.41;;;16.17;54.65
69184;BME280;56291;53.960;27.550;2022-07-29T07:20:58;99564.94;;;16.22;53.91
69184;BME280;56291;53.960;27.550;2022-07-29T07:23:27;99558.94;;;16.28;54.00
69184;BME280;56291;53.960;27.550;2022-07-29T07:25:55;99570.22;;;16.38;53.58
69184;BME280;56291;53.960;27.550;2022-07-29T07:28:22;99567.72;;;16.45;53.78
69184;BME280;56291;53.960;27.550;2022-07-29T07:30:48;99564.06;;;16.54;53.00
69184;BME280;56291;53.960;27.550;2022-07-29T07:33:15;99564.53;;;16.58;53.21
69184;BME280;56291;53.960;27.550;2022-07-29T07:35:42;99571.84;;;16.64;52.77
69184;BME280;56291;53.960;27.550;2022-07-29T07:38:13;99567.34;;;16.73;54.34
69184;BME280;56291;53.960;27.550;2022-07-29T07:40:41;99577.31;;;16.79;53.48
69184;BME280;56291;53.960;27.550;2022-07-29T07:43:12;99572.13;;;16.86;54.37
69184;BME280;56291;53.960;27.550;2022-07-29T07:45:40;99581.59;;;16.97;53.46
69184;BME280;56291;53.960;27.550;2022-07-29T07:48:07;99581.41;;;17.06;52.87
69184;BME280;56291;53.960;27.550;2022-07-29T07:50:39;99589.34;;;17.15;52.70
69184;BME280;56291;53.960;27.550;2022-07-29T07:53:06;99592.63;;;17.25;52.20
69184;BME280;56291;53.960;27.550;2022-07-29T07:55:33;99598.41;;;17.37;52.22
69184;BME280;56291;53.960;27.550;2022-07-29T07:58:06;99594.88;;;17.44;52.07
69184;BME280;56291;53.960;27.550;2022-07-29T08:00:32;99601.31;;;17.50;52.16
69184;BME280;56291;53.960;27.550;2022-07-29T08:02:59;99601.81;;;17.54;52.03
69184;BME280;56291;53.960;27.550;2022-07-29T08:05:25;99606.25;;;17.61;52.63
69184;BME280;56291;53.960;27.550;2022-07-29T08:07:52;99606.03;;;17.71;52.30
69184;BME280;56291;53.960;27.550;2022-07-29T08:10:20;99605.63;;;17.83;52.18
69184;BME280;56291;53.960;27.550;2022-07-29T08:13:08;99609.56;;;17.95;51.96
69184;BME280;56291;53.960;27.550;2022-07-29T08:15:40;99615.03;;;18.02;51.69
69184;BME280;56291;53.960;27.550;2022-07-29T08:18:08;99612.13;;;18.11;52.01
69184;BME280;56291;53.960;27.550;2022-07-29T08:20:37;99611.41;;;18.18;51.48
69184;BME280;56291;53.960;27.550;2022-07-29T08:23:07;99607.69;;;18.27;51.40
69184;BME280;56291;53.960;27.550;2022-07-29T08:25:38;99615.63;;;18.35;51.47
69184;BME280;56291;53.960;27.550;2022-07-29T08:28:06;99621.06;;;18.42;51.42
69184;BME280;56291;53.960;27.550;2022-07-29T08:30:34;99612.34;;;18.48;51.65
69184;BME280;56291;53.960;27.550;2022-07-29T08:33:01;99619.06;;;18.59;50.74
69184;BME280;56291;53.960;27.550;2022-07-29T08:35:28;99623.59;;;18.73;50.69
69184;BME280;56291;53.960;27.550;2022-07-29T08:37:56;99628.66;;;18.83;50.47
69184;BME280;56291;53.960;27.550;2022-07-29T08:40:23;99626.31;;;18.88;50.74
69184;BME280;56291;53.960;27.550;2022-07-29T08:42:50;99618.31;;;19.03;50.34
69184;BME280;56291;53.960;27.550;2022-07-29T08:45:17;99627.06;;;19.12;50.53
69184;BME280;56291;53.960;27.550;2022-07-29T08:47:45;99626.78;;;19.22;50.00
69184;BME280;56291;53.960;27.550;2022-07-29T08:50:12;99629.00;;;19.33;50.41
69184;BME280;56291;53.960;27.550;2022-07-29T08:52:41;99633.00;;;19.44;49.63
69184;BME280;56291;53.960;27.550;2022-07-29T08:55:10;99624.72;;;19.54;50.37
69184;BME280;56291;53.960;27.550;2022-07-29T08:57:39;99631.03;;;19.67;49.55
69184;BME280;56291;53.960;27.550;2022-07-29T09:00:08;99621.19;;;19.83;49.38
69184;BME280;56291;53.960;27.550;2022-07-29T09:02:40;99628.16;;;19.99;48.86
69184;BME280;56291;53.960;27.550;2022-07-29T09:05:08;99619.56;;;20.03;48.99
69184;BME280;56291;53.960;27.550;2022-07-29T09:07:34;99628.78;;;20.23;48.62
69184;BME280;56291;53.960;27.550;2022-07-29T09:10:02;99629.09;;;20.34;48.33
69184;BME280;56291;53.960;27.550;2022-07-29T09:12:30;99623.28;;;20.52;48.02
69184;BME280;56291;53.960;27.550;2022-07-29T09:14:57;99619.78;;;20.74;47.99
69184;BME280;56291;53.960;27.550;2022-07-29T09:17:46;99618.44;;;20.91;48.67
69184;BME280;56291;53.960;27.550;2022-07-29T09:20:17;99610.97;;;21.15;48.11
69184;BME280;56291;53.960;27.550;2022-07-29T09:22:44;99619.94;;;21.35;48.34
69184;BME280;56291;53.960;27.550;2022-07-29T09:25:31;99622.84;;;21.41;47.40
69184;BME280;56291;53.960;27.550;2022-07-29T09:28:07;99619.44;;;21.60;48.63
69184;BME280;56291;53.960;27.550;2022-07-29T09:30:34;99617.06;;;21.92;47.26
69184;BME280;56291;53.960;27.550;2022-07-29T09:33:04;99618.75;;;22.13;48.18
69184;BME280;56291;53.960;27.550;2022-07-29T09:35:31;99615.28;;;22.39;47.01
69184;BME280;56291;53.960;27.550;2022-07-29T09:37:57;99609.91;;;22.59;46.40
69184;BME280;56291;53.960;27.550;2022-07-29T09:40:36;99608.69;;;22.75;47.09
69184;BME280;56291;53.960;27.550;2022-07-29T09:43:14;99605.31;;;23.00;46.39
69184;BME280;56291;53.960;27.550;2022-07-29T09:45:41;99602.41;;;23.22;46.17
69184;BME280;56291;53.960;27.550;2022-07-29T09:48:16;99608.31;;;23.44;44.77
69184;BME280;56291;53.960;27.550;2022-07-29T09:50:44;99599.22;;;23.45;43.72
69184;BME280;56291;53.960;27.550;2022-07-29T09:56:04;99589.81;;;24.06;44.54
69184;BME280;56291;53.960;27.550;2022-07-29T09:58:31;99591.75;;;24.24;43.58
69184;BME280;56291;53.960;27.550;2022-07-29T10:01:02;99592.03;;;24.41;43.85
69184;BME280;56291;53.960;27.550;2022-07-29T10:03:29;99585.66;;;24.61;44.09
69184;BME280;56291;53.960;27.550;2022-07-29T10:06:15;99584.31;;;24.95;45.36
69184;BME280;56291;53.960;27.550;2022-07-29T10:08:54;99584.41;;;25.19;42.51
69184;BME280;56291;53.960;27.550;2022-07-29T10:11:32;99585.41;;;25.43;43.03
69184;BME280;56291;53.960;27.550;2022-07-29T10:13:59;99581.66;;;25.75;41.89
69184;BME280;56291;53.960;27.550;2022-07-29T10:16:27;99577.31;;;26.04;41.13
69184;BME280;56291;53.960;27.550;2022-07-29T10:19:00;99573.97;;;26.21;39.19
69184;BME280;56291;53.960;27.550;2022-07-29T10:21:28;99574.19;;;26.31;41.46
69184;BME280;56291;53.960;27.550;2022-07-29T10:23:56;99576.91;;;26.55;40.60
69184;BME280;56291;53.960;27.550;2022-07-29T10:26:31;99561.78;;;26.89;40.32
69184;BME280;56291;53.960;27.550;2022-07-29T10:29:01;99568.06;;;27.07;41.02
69184;BME280;56291;53.960;27.550;2022-07-29T10:31:34;99563.56;;;27.36;40.91
69184;BME280;56291;53.960;27.550;2022-07-29T10:34:31;99562.88;;;27.58;39.00
69184;BME280;56291;53.960;27.550;2022-07-29T10:37:15;99555.88;;;27.74;40.48
69184;BME280;56291;53.960;27.550;2022-07-29T10:43:23;99557.88;;;28.29;36.63
69184;BME280;56291;53.960;27.550;2022-07-29T10:45:56;99564.22;;;28.35;41.79
69184;BME280;56291;53.960;27.550;2022-07-29T10:48:30;99555.88;;;28.59;36.95
69184;BME280;56291;53.960;27.550;2022-07-29T10:51:00;99547.38;;;28.67;34.80
69184;BME280;56291;53.960;27.550;2022-07-29T10:53:48;99551.84;;;28.78;36.89
69184;BME280;56291;53.960;27.550;2022-07-29T10:56:29;99553.50;;;28.79;37.37
69184;BME280;56291;53.960;27.550;2022-07-29T11:01:51;99549.88;;;29.62;41.63
69184;BME280;56291;53.960;27.550;2022-07-29T11:07:10;99549.50;;;30.08;36.83
69184;BME280;56291;53.960;27.550;2022-07-29T11:09:37;99547.47;;;30.31;35.64
69184;BME280;56291;53.960;27.550;2022-07-29T11:14:59;99540.63;;;30.61;34.51
69184;BME280;56291;53.960;27.550;2022-07-29T11:17:28;99543.16;;;30.72;37.64
69184;BME280;56291;53.960;27.550;2022-07-29T11:22:58;99541.69;;;31.13;34.28
69184;BME280;56291;53.960;27.550;2022-07-29T11:25:31;99546.13;;;31.34;36.56
69184;BME280;56291;53.960;27.550;2022-07-29T11:28:16;99540.44;;;31.46;34.37
69184;BME280;56291;53.960;27.550;2022-07-29T11:31:04;99537.25;;;31.70;32.99
69184;BME280;56291;53.960;27.550;2022-07-29T11:33:53;99540.81;;;31.86;30.33
69184;BME280;56291;53.960;27.550;2022-07-29T11:36:19;99540.53;;;32.03;33.98
69184;BME280;56291;53.960;27.550;2022-07-29T11:38:47;99538.31;;;32.36;35.40
69184;BME280;56291;53.960;27.550;2022-07-29T11:41:28;99536.91;;;32.59;34.24
69184;BME280;56291;53.960;27.550;2022-07-29T11:44:01;99535.25;;;32.78;35.88
69184;BME280;56291;53.960;27.550;2022-07-29T11:46:52;99535.25;;;32.78;34.53
69184;BME280;56291;53.960;27.550;2022-07-29T11:49:48;99538.53;;;32.60;30.05
69184;BME280;56291;53.960;27.550;2022-07-29T11:52:17;99535.47;;;32.92;31.77
69184;BME280;56291;53.960;27.550;2022-07-29T11:54:44;99537.53;;;33.16;30.60
69184;BME280;56291;53.960;27.550;2022-07-29T11:57:19;99526.97;;;32.99;28.66
69184;BME280;56291;53.960;27.550;2022-07-29T11:59:47;99528.78;;;33.24;30.61
69184;BME280;56291;53.960;27.550;2022-07-29T12:02:15;99536.00;;;33.00;27.76
69184;BME280;56291;53.960;27.550;2022-07-29T12:04:53;99529.41;;;33.06;28.21
69184;BME280;56291;53.960;27.550;2022-07-29T12:07:34;99518.41;;;33.21;30.04
69184;BME280;56291;53.960;27.550;2022-07-29T12:10:01;99517.63;;;33.16;28.13
69184;BME280;56291;53.960;27.550;2022-07-29T12:12:34;99521.31;;;32.90;26.47
69184;BME280;56291;53.960;27.550;2022-07-29T12:15:17;99519.06;;;33.08;28.60
69184;BME280;56291;53.960;27.550;2022-07-29T12:17:47;99519.38;;;32.96;28.27
69184;BME280;56291;53.960;27.550;2022-07-29T12:20:28;99513.81;;;33.17;28.64
69184;BME280;56291;53.960;27.550;2022-07-29T12:22:56;99517.16;;;33.03;24.89
69184;BME280;56291;53.960;27.550;2022-07-29T12:25:27;99512.34;;;32.79;24.44
69184;BME280;56291;53.960;27.550;2022-07-29T12:28:05;99515.34;;;32.78;28.52
69184;BME280;56291;53.960;27.550;2022-07-29T12:30:53;99510.25;;;33.61;28.48
69184;BME280;56291;53.960;27.550;2022-07-29T12:33:28;99509.94;;;33.68;28.92
69184;BME280;56291;53.960;27.550;2022-07-29T12:36:00;99501.97;;;33.81;29.71
69184;BME280;56291;53.960;27.550;2022-07-29T12:38:27;99505.63;;;33.96;28.74
69184;BME280;56291;53.960;27.550;2022-07-29T12:40:57;99503.00;;;34.15;29.57
69184;BME280;56291;53.960;27.550;2022-07-29T12:43:25;99504.72;;;34.06;28.01
69184;BME280;56291;53.960;27.550;2022-07-29T12:45:53;99498.28;;;33.57;28.57
69184;BME280;56291;53.960;27.550;2022-07-29T12:48:42;99492.78;;;33.67;30.34
69184;BME280;56291;53.960;27.550;2022-07-29T12:51:10;99491.63;;;33.73;29.85
69184;BME280;56291;53.960;27.550;2022-07-29T12:54:01;99491.09;;;33.71;29.42
69184;BME280;56291;53.960;27.550;2022-07-29T12:56:28;99480.72;;;33.39;28.81
69184;BME280;56291;53.960;27.550;2022-07-29T12:58:56;99485.09;;;33.69;30.10
69184;BME280;56291;53.960;27.550;2022-07-29T13:01:36;99479.94;;;33.68;29.59
69184;BME280;56291;53.960;27.550;2022-07-29T13:04:09;99476.97;;;33.64;29.56
69184;BME280;56291;53.960;27.550;2022-07-29T13:06:43;99477.16;;;33.38;28.84
69184;BME280;56291;53.960;27.550;2022-07-29T13:09:17;99477.13;;;33.43;29.54
69184;BME280;56291;53.960;27.550;2022-07-29T13:11:45;99481.25;;;33.41;29.51
69184;BME280;56291;53.960;27.550;2022-07-29T13:14:34;99475.09;;;33.59;28.92
69184;BME280;56291;53.960;27.550;2022-07-29T13:17:20;99473.19;;;33.60;29.25
69184;BME280;56291;53.960;27.550;2022-07-29T13:19:51;99475.09;;;33.59;29.23
69184;BME280;56291;53.960;27.550;2022-07-29T13:22:23;99481.00;;;33.72;29.27
69184;BME280;56291;53.960;27.550;2022-07-29T13:25:00;99477.16;;;33.78;29.52
69184;BME280;56291;53.960;27.550;2022-07-29T13:27:31;99478.06;;;33.97;29.46
69184;BME280;56291;53.960;27.550;2022-07-29T13:29:59;99482.41;;;33.98;28.46
69184;BME280;56291;53.960;27.550;2022-07-29T13:32:28;99479.09;;;34.02;29.18
69184;BME280;56291;53.960;27.550;2022-07-29T13:34:59;99472.25;;;34.04;29.35
69184;BME280;56291;53.960;27.550;2022-07-29T13:37:26;99469.44;;;34.14;29.16
69184;BME280;56291;53.960;27.550;2022-07-29T13:39:57;99469.03;;;34.31;29.19
69184;BME280;56291;53.960;27.550;2022-07-29T13:42:24;99470.06;;;34.36;26.51
69184;BME280;56291;53.960;27.550;2022-07-29T13:44:52;99461.88;;;34.36;28.89
69184;BME280;56291;53.960;27.550;2022-07-29T13:47:20;99454.88;;;34.48;29.34
69184;BME280;56291;53.960;27.550;2022-07-29T13:49:50;99463.25;;;34.57;29.36
69184;BME280;56291;53.960;27.550;2022-07-29T13:52:36;99451.13;;;34.63;28.69
69184;BME280;56291;53.960;27.550;2022-07-29T13:55:11;99461.50;;;34.66;29.61
69184;BME280;56291;53.960;27.550;2022-07-29T13:57:38;99455.78;;;34.87;28.89
69184;BME280;56291;53.960;27.550;2022-07-29T14:00:05;99460.28;;;34.97;29.12
69184;BME280;56291;53.960;27.550;2022-07-29T14:02:33;99462.25;;;34.72;26.07
69184;BME280;56291;53.960;27.550;2022-07-29T14:04:59;99460.53;;;35.00;29.15
69184;BME280;56291;53.960;27.550;2022-07-29T14:07:27;99460.06;;;35.12;28.90
69184;BME280;56291;53.960;27.550;2022-07-29T14:09:54;99445.44;;;34.84;23.14
69184;BME280;56291;53.960;27.550;2022-07-29T14:12:21;99448.84;;;34.95;28.88
69184;BME280;56291;53.960;27.550;2022-07-29T14:14:50;99459.19;;;35.17;29.25
69184;BME280;56291;53.960;27.550;2022-07-29T14:17:29;99462.75;;;35.37;28.84
69184;BME280;56291;53.960;27.550;2022-07-29T14:19:56;99462.06;;;35.45;28.79
69184;BME280;56291;53.960;27.550;2022-07-29T14:22:22;99464.66;;;35.36;28.71
69184;BME280;56291;53.960;27.550;2022-07-29T14:24:51;99460.03;;;35.37;29.16
69184;BME280;56291;53.960;27.550;2022-07-29T14:27:42;99457.13;;;35.47;29.10
69184;BME280;56291;53.960;27.550;2022-07-29T14:30:15;99448.72;;;35.57;28.82
69184;BME280;56291;53.960;27.550;2022-07-29T14:32:42;99457.88;;;35.66;28.71
69184;BME280;56291;53.960;27.550;2022-07-29T14:35:11;99455.25;;;35.75;28.27
69184;BME280;56291;53.960;27.550;2022-07-29T14:37:40;99453.84;;;35.78;27.70
69184;BME280;56291;53.960;27.550;2022-07-29T14:40:09;99456.97;;;35.71;27.70
69184;BME280;56291;53.960;27.550;2022-07-29T14:42:36;99462.38;;;35.76;28.22
69184;BME280;56291;53.960;27.550;2022-07-29T14:45:06;99447.81;;;35.81;27.79
69184;BME280;56291;53.960;27.550;2022-07-29T14:47:34;99449.84;;;35.89;27.73
69184;BME280;56291;53.960;27.550;2022-07-29T14:50:02;99445.47;;;35.88;27.78
69184;BME280;56291;53.960;27.550;2022-07-29T14:52:30;99451.47;;;35.90;28.00
69184;BME280;56291;53.960;27.550;2022-07-29T14:54:59;99451.88;;;35.83;27.52
69184;BME280;56291;53.960;27.550;2022-07-29T14:57:25;99447.13;;;35.89;27.65
69184;BME280;56291;53.960;27.550;2022-07-29T14:59:51;99440.84;;;35.89;27.91
69184;BME280;56291;53.960;27.550;2022-07-29T15:02:18;99439.44;;;35.91;27.57
69184;BME280;56291;53.960;27.550;2022-07-29T15:04:44;99438.00;;;35.94;27.23
69184;BME280;56291;53.960;27.550;2022-07-29T15:07:25;99437.78;;;35.90;27.71
69184;BME280;56291;53.960;27.550;2022-07-29T15:09:53;99444.38;;;35.89;27.85
69184;BME280;56291;53.960;27.550;2022-07-29T15:12:22;99438.69;;;35.85;27.63
69184;BME280;56291;53.960;27.550;2022-07-29T15:14:51;99442.56;;;35.84;27.68
69184;BME280;56291;53.960;27.550;2022-07-29T15:17:20;99433.72;;;35.88;27.33
69184;BME280;56291;53.960;27.550;2022-07-29T15:20:08;99435.44;;;35.83;26.73
69184;BME280;56291;53.960;27.550;2022-07-29T15:22:35;99434.13;;;35.81;27.04
69184;BME280;56291;53.960;27.550;2022-07-29T15:25:24;99433.75;;;35.68;26.35